Roseburg, OR

10:20 AM PDT on September 17, 2014 (GMT -0700)
Hucrest | Change Station
CLOSE
Current Station
Personal Weather Station
Location: Roseburg, OR
Elevation: 425 ft
Nearby Weather Stations

Elev 425 ft 43.22 °N, 123.38 °W | Updated 32 seconds ago

Clear
Clear
65.0 °F
Feels Like 65.0 °F
N
0.0
Wind Variable Wind from NNW
Gusts 0.0 mph

Today
High -- | Low -- °F
--% Chance of Precip.
Yesterday
High -- | Low -- °F
Precip. -- in
6:55 AM 7:19 PM
Waning Crescent, 34% visible
Pressure 29.76 in
Visibility 10.0 miles
Clouds Clear
Dew Point 53 °F
Humidity 66%
Rainfall 0.00 in
Snow Depth 1 in , 0 in , 0 in
UV 3 out of 12
Pollen 1.30 out of 12
Air Quality Not available.
Flu Activity Not available.
METAR KRBG 171653Z AUTO 00000KT 10SM CLR 18/12 A2976 RMK AO2 SLP076 T01780117

More Conditions Fewer Conditions

Pressure 29.76 in
Visibility 10.0 miles
Clouds Clear
Dew Point 53 °F
Humidity 66%
Rainfall 0.00 in
Snow Depth 1 in , 0 in , 0 in
UV 3 out of 12
Pollen 1.30 out of 12
Air Quality Not available.
Flu Activity Not available.
METAR KRBG 171653Z AUTO 00000KT 10SM CLR 18/12 A2976 RMK AO2 SLP076 T01780117

More Conditions Fewer Conditions

10-Day Weather Forecast

Almanac

Astronomy

Sep. 17, 2014 Rise Set
Actual Time 6:55 AM PDT 7:19 PM PDT
Civil Twilight 6:26 AM PDT 7:48 PM PDT
Nautical Twilight 5:53 AM PDT 8:21 PM PDT
Astronomical Twilight 5:18 AM PDT 8:56 PM PDT
Moon 12:53 AM PDT 3:40 PM PDT
Length of Visible Light 13h 21m
Length of Day
12h 24m
Tomorrow will be 2m 55s shorter.
Waning Crescent, 34% of the Moon is Illuminated
Today
Waning Crescent
Sep 24
New
Oct 1
First Quarter
Oct 8
Full
Oct 15
Last Quarter

Today's Extremes

State Highs State Lows

Community

WunderPhotos

Upload Photos

1,754,107 photos uploaded!

Nearby

Snow Depth

Station Depth Elevation
Schneider Meadows 1 in 5400 ft
Mud Ridge 0 in 3800 ft
Irish Taylor 1 in 5500 ft
Red Hill 0 in 4400 ft
Mt. Howard 0 in 7910 ft

Earthquake Activity

City Distance Mag. Time & Date
No recent earthquake activity has been reported nearby.
Minimum magnitude displayed is 2.5.

Coastal Water Temperatures

Place Temperature
No Stations Reporting

Nearby Weather Stations